Time;durP1;ratioP1;P1;durP2;ratioP2;P2;SDS_P1;SDS_P2;PMS_P1;PMS_P2;Temp;Humidity;BMP_temperature;BMP_pressure;BME280_temperature;BME280_humidity;BME280_pressure;Samples;Min_cycle;Max_cycle;Signal;HPM_P1;HPM_P2
2023/06/18 00:01:56;;;;;;;9.93;6.20;;;;;;;;;;5088057;28;20056;-84
2023/06/18 00:04:22;;;;;;;9.85;5.63;;;;;;;;;;5084476;28;20031;-83
2023/06/18 00:06:48;;;;;;;9.30;5.80;;;;;;;;;;5083618;28;20028;-84
2023/06/18 00:09:14;;;;;;;8.43;5.63;;;;;;;;;;5076502;28;20421;-85
2023/06/18 00:11:40;;;;;;;8.13;6.07;;;;;;;;;;5078004;28;20093;-86
2023/06/18 00:14:06;;;;;;;8.65;5.95;;;;;;;;;;5081383;28;20028;-87
2023/06/18 00:16:32;;;;;;;9.07;5.75;;;;;;;;;;5084232;28;20520;-86
2023/06/18 00:18:58;;;;;;;8.38;5.65;;;;;;;;;;5084654;28;20059;-85
2023/06/18 00:21:25;;;;;;;8.98;5.97;;;;;;;;;;5087627;28;20028;-87
2023/06/18 00:23:51;;;;;;;7.45;5.25;;;;;;;;;;5087369;28;20036;-84
2023/06/18 00:26:17;;;;;;;10.05;7.32;;;;;;;;;;5083505;28;20136;-88
2023/06/18 00:28:43;;;;;;;8.07;5.95;;;;;;;;;;5080820;28;20025;-87
2023/06/18 00:31:11;;;;;;;9.07;6.55;;;;;;;;;;5083227;28;20050;-86
2023/06/18 00:33:37;;;;;;;10.65;5.72;;;;;;;;;;5081861;28;20020;-85
2023/06/18 00:36:06;;;;;;;8.60;6.05;;;;;;;;;;5088602;28;20032;-87
2023/06/18 00:38:35;;;;;;;7.53;5.60;;;;;;;;;;5080612;28;20119;-86
2023/06/18 00:41:01;;;;;;;7.80;5.20;;;;;;;;;;5079922;28;20024;-86
2023/06/18 00:43:28;;;;;;;9.35;5.93;;;;;;;;;;5075913;28;20165;-87
2023/06/18 00:45:54;;;;;;;9.23;5.60;;;;;;;;;;5081996;28;20116;-86
2023/06/18 00:48:20;;;;;;;8.73;5.75;;;;;;;;;;5076257;28;20513;-86
2023/06/18 00:50:47;;;;;;;9.95;6.28;;;;;;;;;;5077850;28;20028;-87
2023/06/18 00:53:13;;;;;;;8.18;5.22;;;;;;;;;;5074665;28;20028;-87
2023/06/18 00:55:41;;;;;;;9.90;5.90;;;18.60;83.20;;;;;;5076365;28;20020;-85
2023/06/18 00:58:07;;;;;;;9.43;5.82;;;;;;;;;;5085058;28;20523;-86
2023/06/18 01:00:34;;;;;;;7.55;5.05;;;;;;;;;;5087694;28;20028;-86
2023/06/18 01:03:05;;;;;;;7.15;5.25;;;18.50;83.80;;;;;;5083717;28;20044;-89
2023/06/18 01:05:31;;;;;;;11.90;6.13;;;;;;;;;;5084240;28;20493;-86
2023/06/18 01:08:05;;;;;;;7.07;5.40;;;;;;;;;;5080402;28;20405;-87
2023/06/18 01:10:31;;;;;;;9.25;5.85;;;;;;;;;;5081640;28;20434;-87
2023/06/18 01:12:58;;;;;;;10.05;5.70;;;18.40;84.80;;;;;;5081863;28;20027;-86
2023/06/18 01:15:27;;;;;;;8.32;5.20;;;;;;;;;;5086893;28;20020;-86
2023/06/18 01:17:57;;;;;;;9.23;5.80;;;;;;;;;;5087106;28;20112;-85
2023/06/18 01:20:25;;;;;;;9.55;6.78;;;18.50;85.40;;;;;;5081909;28;20475;-85
2023/06/18 01:23:02;;;;;;;11.07;6.28;;;18.50;85.40;;;;;;5073940;28;22371;-85
2023/06/18 01:25:32;;;;;;;7.55;5.45;;;;;;;;;;5089752;28;20035;-87
2023/06/18 01:28:07;;;;;;;10.13;5.47;;;18.50;86.10;;;;;;5090516;28;20028;-88
2023/06/18 01:30:33;;;;;;;8.38;5.57;;;;;;;;;;5073296;28;20126;-86
2023/06/18 01:32:59;;;;;;;6.93;5.00;;;;;;;;;;5083946;28;20028;-85
2023/06/18 01:35:25;;;;;;;7.75;6.07;;;;;;;;;;5086826;28;20021;-87
2023/06/18 01:37:54;;;;;;;7.18;5.75;;;;;;;;;;5092664;28;20727;-82
2023/06/18 01:40:51;;;;;;;7.53;6.15;;;18.30;87.40;;;;;;5091355;28;20424;-86
2023/06/18 01:43:30;;;;;;;7.13;5.40;;;18.20;87.90;;;;;;5088818;28;20443;-85
2023/06/18 01:46:08;;;;;;;8.32;5.68;;;18.20;88.20;;;;;;5083927;28;20140;-86
2023/06/18 01:48:43;;;;;;;9.25;6.07;;;18.20;88.40;;;;;;5086293;28;20482;-86
2023/06/18 01:51:09;;;;;;;10.13;6.90;;;;;;;;;;5084926;28;20032;-85
2023/06/18 01:53:37;;;;;;;8.07;6.07;;;18.10;89.10;;;;;;5089137;28;20021;-86
2023/06/18 01:56:03;;;;;;;8.10;6.00;;;;;;;;;;5083949;28;20020;-84
2023/06/18 01:58:33;;;;;;;9.65;5.95;;;18.10;89.60;;;;;;5088147;28;20393;-83
2023/06/18 02:00:59;;;;;;;10.23;5.88;;;;;;;;;;5071299;28;20032;-86
2023/06/18 02:03:25;;;;;;;8.50;6.00;;;;;;;;;;5085883;28;20028;-86
2023/06/18 02:05:51;;;;;;;6.65;5.40;;;;;;;;;;5089759;28;20038;-84
2023/06/18 02:08:18;;;;;;;8.95;6.45;;;18.00;90.30;;;;;;5085322;28;20127;-85
2023/06/18 02:10:44;;;;;;;9.40;5.90;;;;;;;;;;5088927;28;20058;-86
2023/06/18 02:13:10;;;;;;;6.70;5.35;;;;;;;;;;5085364;28;20392;-86
2023/06/18 02:15:36;;;;;;;10.18;5.40;;;;;;;;;;5088037;28;20047;-85
2023/06/18 02:18:03;;;;;;;8.55;5.50;;;;;;;;;;5090960;28;20035;-85
2023/06/18 02:20:29;;;;;;;7.20;5.85;;;;;;;;;;5086280;28;20039;-86
2023/06/18 02:22:55;;;;;;;7.97;5.88;;;;;;;;;;5088510;28;20052;-88
2023/06/18 02:25:28;;;;;;;8.32;6.03;;;;;;;;;;5096214;28;20040;-86
2023/06/18 02:27:58;;;;;;;8.38;5.40;;;17.80;91.30;;;;;;5108703;28;20028;-85
2023/06/18 02:30:31;;;;;;;8.70;6.07;;;;;;;;;;5101557;28;20084;-85
2023/06/18 02:33:01;;;;;;;7.82;5.95;;;17.80;91.50;;;;;;5103238;28;20043;-86
2023/06/18 02:35:27;;;;;;;8.48;5.55;;;17.80;91.40;;;;;;5102454;28;20009;-88
2023/06/18 02:37:54;;;;;;;8.40;5.80;;;;;;;;;;5094949;28;20028;-84
2023/06/18 02:40:20;;;;;;;6.28;5.18;;;;;;;;;;5090980;28;20040;-82
2023/06/18 02:42:50;;;;;;;8.15;5.50;;;;;;;;;;5092555;28;20032;-85
2023/06/18 02:45:17;;;;;;;8.90;5.82;;;17.60;92.00;;;;;;5088953;28;20040;-85
2023/06/18 02:47:47;;;;;;;7.45;4.90;;;17.60;92.30;;;;;;5092002;28;20024;-84
2023/06/18 02:50:13;;;;;;;7.63;5.68;;;;;;;;;;5091911;28;20033;-86
2023/06/18 02:52:40;;;;;;;10.32;5.95;;;;;;;;;;5094576;28;20025;-87
2023/06/18 02:55:07;;;;;;;9.93;5.63;;;17.60;93.00;;;;;;5103504;28;20062;-86
2023/06/18 02:57:33;;;;;;;7.90;5.75;;;;;;;;;;5101715;28;20043;-83
2023/06/18 02:59:59;;;;;;;7.80;5.80;;;;;;;;;;5104657;28;20019;-82
2023/06/18 03:02:26;;;;;;;8.68;6.07;;;;;;;;;;5093985;28;20024;-86
2023/06/18 03:04:52;;;;;;;11.80;5.70;;;;;;;;;;5098848;28;20042;-85
2023/06/18 03:07:18;;;;;;;7.45;6.35;;;;;;;;;;5099437;28;20071;-87
2023/06/18 03:09:44;;;;;;;7.85;5.95;;;;;;;;;;5097343;28;20043;-85
2023/06/18 03:12:11;;;;;;;7.93;5.50;;;;;;;;;;5098220;28;20038;-86
2023/06/18 03:14:37;;;;;;;8.07;5.85;;;;;;;;;;5098042;28;20031;-88
2023/06/18 03:17:03;;;;;;;8.85;5.70;;;;;;;;;;5099556;28;20039;-86
2023/06/18 03:19:29;;;;;;;8.10;5.10;;;;;;;;;;5103462;28;20044;-86
2023/06/18 03:21:55;;;;;;;9.82;5.60;;;;;;;;;;5103682;28;20123;-85
2023/06/18 03:24:22;;;;;;;8.02;6.00;;;;;;;;;;5105763;28;20023;-82
2023/06/18 03:26:48;;;;;;;8.48;5.80;;;;;;;;;;5098986;28;20129;-86
2023/06/18 03:29:15;;;;;;;8.95;5.60;;;;;;;;;;5101347;28;20042;-87
2023/06/18 03:31:41;;;;;;;7.47;5.93;;;;;;;;;;5105992;28;20047;-86
2023/06/18 03:34:07;;;;;;;7.00;5.30;;;;;;;;;;5099102;28;20029;-83
2023/06/18 03:36:39;;;;;;;7.00;5.50;;;;;;;;;;5098260;28;20027;-87
2023/06/18 03:39:09;;;;;;;7.45;5.40;;;;;;;;;;5089203;28;20028;-86
2023/06/18 03:41:35;;;;;;;8.38;5.45;;;;;;;;;;5094678;28;20059;-86
2023/06/18 03:44:02;;;;;;;7.53;5.68;;;17.10;94.20;;;;;;5103876;28;20036;-87
2023/06/18 03:46:28;;;;;;;8.75;6.80;;;;;;;;;;5099492;28;20024;-87
2023/06/18 03:48:55;;;;;;;8.35;6.40;;;;;;;;;;5090859;28;20029;-87
2023/06/18 03:51:21;;;;;;;11.32;8.40;;;;;;;;;;5085638;28;20039;-86
2023/06/18 03:53:47;;;;;;;8.00;6.28;;;;;;;;;;5081647;28;20337;-88
2023/06/18 03:56:13;;;;;;;8.65;6.35;;;;;;;;;;5092465;28;20036;-86
2023/06/18 03:58:39;;;;;;;10.38;6.95;;;;;;;;;;5101161;28;20119;-88
2023/06/18 04:01:07;;;;;;;8.52;6.32;;;;;;;;;;5094264;28;20028;-88
2023/06/18 04:57:56;;;;;;;9.55;5.80;;;;;;;;;;5085342;28;20029;-87
2023/06/18 05:00:22;;;;;;;8.98;6.25;;;17.60;94.40;;;;;;5075298;28;20118;-86
2023/06/18 05:02:48;;;;;;;11.00;6.13;;;;;;;;;;5089701;28;20009;-86
2023/06/18 05:05:18;;;;;;;10.15;6.63;;;;;;;;;;5092996;28;20025;-87
2023/06/18 05:07:44;;;;;;;8.70;6.30;;;;;;;;;;5092104;28;20024;-88
2023/06/18 05:10:10;;;;;;;9.95;5.90;;;;;;;;;;5087883;28;20043;-87
2023/06/18 05:12:37;;;;;;;8.20;5.90;;;;;;;;;;5074374;28;20470;-87
2023/06/18 05:15:04;;;;;;;11.00;6.50;;;;;;;;;;5073935;28;20036;-90
2023/06/18 05:17:30;;;;;;;9.20;6.25;;;;;;;;;;5092997;28;20039;-88
2023/06/18 05:19:56;;;;;;;11.15;6.50;;;;;;;;;;5060496;28;20097;-87
2023/06/18 05:22:22;;;;;;;8.52;6.20;;;;;;;;;;5078223;28;20009;-87
2023/06/18 05:24:48;;;;;;;9.25;5.50;;;;;;;;;;5094428;28;20023;-90
2023/06/18 05:27:14;;;;;;;8.82;5.50;;;;;;;;;;5063540;28;20030;-87
2023/06/18 05:29:40;;;;;;;9.90;6.10;;;;;;;;;;5079033;28;20024;-83
2023/06/18 05:32:07;;;;;;;8.32;6.18;;;21.10;82.70;;;;;;5088780;28;20033;-87
2023/06/18 05:34:33;;;;;;;9.35;5.88;;;;;;;;;;5054757;28;20029;-87
2023/06/18 05:36:59;;;;;;;8.40;6.13;;;;;;;;;;5068223;28;20021;-89
2023/06/18 05:39:25;;;;;;;8.73;5.50;;;;;;;;;;5066898;28;20029;-86
2023/06/18 05:41:51;;;;;;;9.73;6.13;;;;;;;;;;5078673;28;20020;-87
2023/06/18 05:44:17;;;;;;;8.15;5.60;;;;;;;;;;5061996;28;20024;-85
2023/06/18 05:46:43;;;;;;;8.30;6.40;;;;;;;;;;5082766;28;20050;-86
2023/06/18 05:49:09;;;;;;;9.20;6.32;;;;;;;;;;5063057;28;20041;-87
2023/06/18 05:51:36;;;;;;;8.27;6.32;;;;;;;;;;5058465;28;20039;-85
2023/06/18 05:54:02;;;;;;;7.18;6.30;;;;;;;;;;5062337;28;20029;-85
2023/06/18 05:56:28;;;;;;;9.30;6.15;;;;;;;;;;5075704;28;20032;-84
2023/06/18 05:58:54;;;;;;;9.55;6.35;;;21.60;80.60;;;;;;5079574;28;20028;-87
2023/06/18 06:01:20;;;;;;;10.10;6.47;;;;;;;;;;5057462;28;20048;-88
2023/06/18 06:03:46;;;;;;;8.88;6.13;;;;;;;;;;5059869;28;20030;-86
2023/06/18 06:06:12;;;;;;;9.43;6.72;;;;;;;;;;5063239;28;20547;-87
2023/06/18 06:08:38;;;;;;;9.50;6.45;;;;;;;;;;5078820;28;20537;-86
2023/06/18 06:11:05;;;;;;;13.23;6.68;;;;;;;;;;5080099;28;20028;-87
2023/06/18 06:13:31;;;;;;;8.95;6.68;;;;;;;;;;5081785;28;20025;-87
2023/06/18 06:15:56;;;;;;;8.55;6.80;;;21.30;83.40;;;;;;5060564;28;20039;-87
2023/06/18 06:18:22;;;;;;;7.75;6.18;;;;;;;;;;5082811;28;20426;-87
2023/06/18 06:20:48;;;;;;;8.73;6.68;;;;;;;;;;5079173;28;20078;-86
2023/06/18 06:23:14;;;;;;;7.43;6.13;;;;;;;;;;5067625;28;20044;-89
2023/06/18 06:25:40;;;;;;;9.70;6.57;;;;;;;;;;5063433;28;20036;-88
2023/06/18 06:28:06;;;;;;;9.02;6.70;;;;;;;;;;5062097;28;20424;-88
2023/06/18 06:30:32;;;;;;;8.88;6.53;;;;;;;;;;5079929;28;20028;-88
2023/06/18 06:32:58;;;;;;;10.40;6.82;;;;;;;;;;5061201;28;20029;-84
2023/06/18 06:35:24;;;;;;;9.52;6.20;;;;;;;;;;5062629;28;20032;-87
2023/06/18 06:37:51;;;;;;;6.75;5.95;;;;;;;;;;5082221;28;20031;-87
2023/06/18 06:40:17;;;;;;;9.95;6.47;;;;;;;;;;5057413;28;20032;-86
2023/06/18 06:42:43;;;;;;;9.15;6.68;;;;;;;;;;5082349;28;20054;-86
2023/06/18 06:45:10;;;;;;;11.18;6.88;;;;;;;;;;5066347;28;20024;-84
2023/06/18 06:47:36;;;;;;;9.23;5.90;;;;;;;;;;5041890;28;20060;-87
2023/06/18 06:50:02;;;;;;;9.07;6.43;;;;;;;;;;5065880;28;20024;-85
2023/06/18 06:52:28;;;;;;;9.38;6.65;;;;;;;;;;5066588;28;20047;-87
2023/06/18 06:54:54;;;;;;;7.82;6.38;;;;;;;;;;5053741;28;20028;-87
2023/06/18 06:57:20;;;;;;;7.53;6.18;;;;;;;;;;5084179;28;20041;-88
2023/06/18 06:59:46;;;;;;;8.73;6.10;;;;;;;;;;5064745;28;20429;-87
2023/06/18 07:02:12;;;;;;;9.27;6.40;;;23.00;77.60;;;;;;5057832;28;20036;-82
2023/06/18 07:04:38;;;;;;;9.32;6.35;;;;;;;;;;5075229;28;20044;-82
2023/06/18 07:07:04;;;;;;;8.23;6.45;;;;;;;;;;5057798;28;20041;-84
2023/06/18 07:09:30;;;;;;;7.30;5.70;;;;;;;;;;5075011;28;20020;-82
2023/06/18 07:11:56;;;;;;;9.05;5.85;;;;;;;;;;5061082;28;20490;-84
2023/06/18 07:14:22;;;;;;;7.60;6.18;;;;;;;;;;5073158;28;20047;-83
2023/06/18 07:16:48;;;;;;;9.13;6.75;;;;;;;;;;5076472;28;20040;-81
2023/06/18 07:19:14;;;;;;;8.30;6.30;;;;;;;;;;5073592;28;20041;-84
2023/06/18 07:21:40;;;;;;;7.78;6.07;;;;;;;;;;5068798;28;20494;-84
2023/06/18 07:24:06;;;;;;;8.10;5.70;;;;;;;;;;5076674;28;20088;-84
2023/06/18 07:26:32;;;;;;;9.77;6.22;;;;;;;;;;5068137;28;20661;-84
2023/06/18 07:28:58;;;;;;;9.88;6.72;;;;;;;;;;5078578;28;20093;-84
2023/06/18 07:31:24;;;;;;;8.20;6.10;;;;;;;;;;5078027;28;20110;-82
2023/06/18 07:33:50;;;;;;;9.05;6.22;;;;;;;;;;5076685;28;20052;-84
2023/06/18 07:36:16;;;;;;;10.50;6.55;;;;;;;;;;5061448;28;20043;-83
2023/06/18 07:38:42;;;;;;;7.97;5.88;;;;;;;;;;5054812;28;20135;-83
2023/06/18 07:41:08;;;;;;;8.90;5.95;;;;;;;;;;5069060;28;20029;-85
2023/06/18 07:43:34;;;;;;;8.77;6.25;;;;;;;;;;5054043;28;20036;-84
2023/06/18 07:46:00;;;;;;;9.65;6.05;;;;;;;;;;5058684;28;20078;-84
2023/06/18 07:48:26;;;;;;;8.88;6.18;;;;;;;;;;5075688;28;20028;-84
2023/06/18 07:50:52;;;;;;;9.75;6.25;;;;;;;;;;5045053;28;20056;-83
2023/06/18 07:53:18;;;;;;;7.70;5.93;;;;;;;;;;5068248;28;20054;-82
2023/06/18 07:55:45;;;;;;;8.35;6.07;;;;;;;;;;5070103;28;20156;-86
2023/06/18 07:58:11;;;;;;;8.43;5.95;;;;;;;;;;5066895;28;20025;-84
2023/06/18 08:00:36;;;;;;;9.07;6.30;;;;;;;;;;5070656;28;20028;-83
2023/06/18 08:03:03;;;;;;;7.88;5.97;;;;;;;;;;5036302;28;20032;-84
2023/06/18 08:05:29;;;;;;;7.75;5.95;;;;;;;;;;5066152;28;20025;-85
2023/06/18 08:07:55;;;;;;;9.60;6.07;;;;;;;;;;5075372;28;20082;-82
2023/06/18 08:10:21;;;;;;;6.70;5.47;;;;;;;;;;5056440;28;20219;-87
2023/06/18 08:12:46;;;;;;;7.75;5.55;;;;;;;;;;5091753;28;20055;-84
2023/06/18 08:15:13;;;;;;;7.25;5.88;;;;;;;;;;5089986;28;20498;-86
2023/06/18 08:17:38;;;;;;;7.30;6.07;;;;;;;;;;5089063;28;20036;-86
2023/06/18 08:20:05;;;;;;;10.27;5.72;;;25.60;72.80;;;;;;5081190;28;20104;-82
2023/06/18 08:22:32;;;;;;;8.18;5.35;;;;;;;;;;5068769;28;20021;-85
2023/06/18 08:24:57;;;;;;;7.30;5.20;;;;;;;;;;5070343;28;20127;-83
2023/06/18 08:27:24;;;;;;;7.22;5.72;;;;;;;;;;5067821;28;20082;-83
2023/06/18 08:29:49;;;;;;;7.57;5.25;;;;;;;;;;5063024;28;20024;-85
2023/06/18 08:32:16;;;;;;;9.32;5.63;;;;;;;;;;5050997;28;20031;-85
2023/06/18 08:34:46;;;;;;;8.18;5.50;;;;;;;;;;5061827;28;20033;-84
2023/06/18 08:37:12;;;;;;;8.18;5.28;;;;;;;;;;5042456;28;20029;-83
2023/06/18 08:39:38;;;;;;;11.25;5.50;;;;;;;;;;5071771;28;20557;-85
2023/06/18 08:42:05;;;;;;;7.32;4.97;;;;;;;;;;5068748;28;20124;-86
2023/06/18 08:44:33;;;;;;;7.68;4.95;;;;;;;;;;5058008;28;20029;-85
2023/06/18 08:47:01;;;;;;;8.25;5.40;;;26.50;69.40;;;;;;5078676;28;20401;-87
2023/06/18 08:49:27;;;;;;;5.97;5.20;;;26.70;68.90;;;;;;5061035;28;20588;-85
2023/06/18 08:51:58;;;;;;;6.75;5.05;;;26.60;68.80;;;;;;5073348;28;20048;-84
2023/06/18 08:54:28;;;;;;;8.13;5.22;;;;;;;;;;5054330;28;20021;-85
2023/06/18 08:57:13;;;;;;;6.93;5.25;;;27.00;67.40;;;;;;5046570;28;20062;-85
2023/06/18 08:59:40;;;;;;;6.85;4.95;;;27.10;67.30;;;;;;5071766;28;20028;-86
2023/06/18 09:02:07;;;;;;;8.35;5.15;;;;;;;;;;5058103;28;20054;-85
2023/06/18 09:04:35;;;;;;;6.45;4.78;;;27.20;66.70;;;;;;5066144;28;20016;-85
2023/06/18 09:07:02;;;;;;;7.78;5.25;;;27.10;65.00;;;;;;5054893;28;20032;-86
2023/06/18 09:09:29;;;;;;;7.72;5.00;;;27.20;65.50;;;;;;5072010;28;22349;-83
2023/06/18 09:11:55;;;;;;;6.68;4.30;;;;;;;;;;5075454;28;20029;-83
2023/06/18 09:14:23;;;;;;;6.80;5.28;;;;;;;;;;5069912;28;20074;-83
2023/06/18 09:16:49;;;;;;;9.32;5.00;;;;;;;;;;5077417;28;20025;-84
2023/06/18 09:19:16;;;;;;;6.53;4.80;;;;;;;;;;5065608;28;20032;-83
2023/06/18 09:21:43;;;;;;;5.75;4.70;;;27.80;64.40;;;;;;5059786;28;20032;-81
2023/06/18 09:24:22;;;;;;;9.00;4.60;;;28.00;64.20;;;;;;5080141;28;20036;-82
2023/06/18 09:27:00;;;;;;;8.60;5.35;;;28.20;63.50;;;;;;5060357;28;20123;-84
2023/06/18 09:29:29;;;;;;;5.88;4.72;;;28.20;62.90;;;;;;5075090;28;20040;-84
2023/06/18 09:31:55;;;;;;;5.55;4.72;;;;;;;;;;5071266;28;20067;-84
2023/06/18 09:34:21;;;;;;;10.25;4.97;;;;;;;;;;5067382;28;20309;-84
2023/06/18 09:36:48;;;;;;;8.43;4.60;;;;;;;;;;5068026;28;20444;-84
2023/06/18 09:39:15;;;;;;;7.68;5.82;;;28.40;62.50;;;;;;5082471;28;20541;-85
2023/06/18 09:41:43;;;;;;;7.90;5.18;;;28.60;62.40;;;;;;5079738;28;20032;-82
2023/06/18 09:44:09;;;;;;;6.25;4.65;;;;;;;;;;5060838;28;20039;-83
2023/06/18 09:46:35;;;;;;;8.43;5.03;;;;;;;;;;5054532;28;20033;-81
2023/06/18 09:49:01;;;;;;;7.50;5.00;;;;;;;;;;5079235;28;20096;-84
2023/06/18 09:51:27;;;;;;;8.43;4.70;;;;;;;;;;5076844;28;20040;-83
2023/06/18 09:53:59;;;;;;;9.02;4.93;;;29.10;60.60;;;;;;5055908;28;20040;-84
2023/06/18 09:56:25;;;;;;;6.85;5.20;;;;;;;;;;5067021;28;20094;-83
2023/06/18 09:58:52;;;;;;;6.85;4.57;;;;;;;;;;5060539;28;20020;-85
2023/06/18 10:01:19;;;;;;;8.07;5.05;;;29.30;60.00;;;;;;5051617;28;20031;-84
2023/06/18 10:03:46;;;;;;;7.40;4.63;;;;;;;;;;5074230;28;20051;-84
2023/06/18 10:06:20;;;;;;;9.20;4.55;;;29.40;59.30;;;;;;5056044;28;20064;-83
2023/06/18 10:08:50;;;;;;;5.60;4.63;;;29.40;59.90;;;;;;5070048;28;20048;-85
2023/06/18 10:11:18;;;;;;;7.57;4.70;;;29.40;60.10;;;;;;5076492;28;20021;-82
2023/06/18 10:13:47;;;;;;;7.15;4.32;;;29.60;59.60;;;;;;5076126;28;20069;-84
2023/06/18 10:16:14;;;;;;;8.75;5.28;;;29.60;60.10;;;;;;5074990;28;20031;-83
2023/06/18 10:18:45;;;;;;;6.47;4.95;;;29.60;59.40;;;;;;5067556;28;20040;-82
2023/06/18 10:21:12;;;;;;;5.85;4.38;;;29.60;59.20;;;;;;5067416;28;20039;-85
2023/06/18 10:23:38;;;;;;;7.90;4.68;;;;;;;;;;5069198;28;20432;-84
2023/06/18 10:26:05;;;;;;;10.13;4.57;;;;;;;;;;5060504;28;20055;-83
2023/06/18 10:28:32;;;;;;;6.03;4.70;;;;;;;;;;5059570;28;20048;-84
2023/06/18 10:30:59;;;;;;;9.20;5.85;;;30.20;58.90;;;;;;5055737;28;20056;-84
2023/06/18 10:33:25;;;;;;;7.95;4.57;;;;;;;;;;5075123;28;20039;-83
2023/06/18 10:35:51;;;;;;;5.30;4.20;;;;;;;;;;5053657;28;20021;-82
2023/06/18 10:38:18;;;;;;;7.80;4.18;;;30.50;56.50;;;;;;5071428;28;20025;-82
2023/06/18 10:40:44;;;;;;;8.48;4.38;;;;;;;;;;5065919;28;20035;-83
2023/06/18 10:43:10;;;;;;;7.22;4.40;;;;;;;;;;5063662;28;20028;-83
2023/06/18 10:45:36;;;;;;;5.15;4.38;;;;;;;;;;5072977;28;20031;-81
2023/06/18 10:48:22;;;;;;;5.72;4.50;;;;;;;;;;5071944;28;20048;-84
2023/06/18 10:51:11;;;;;;;7.15;4.20;;;30.50;56.00;;;;;;5064355;28;20021;-83
2023/06/18 10:53:37;;;;;;;7.23;4.40;;;;;;;;;;5058653;28;20020;-82
2023/06/18 10:56:03;;;;;;;6.53;4.40;;;;;;;;;;5071393;28;20025;-84
2023/06/18 10:58:33;;;;;;;5.07;4.22;;;30.60;56.90;;;;;;5074459;28;20092;-84
2023/06/18 11:01:00;;;;;;;8.95;4.20;;;;;;;;;;5068557;28;20407;-81
2023/06/18 11:03:33;;;;;;;5.53;4.50;;;;;;;;;;5068820;28;20032;-83
2023/06/18 11:06:01;;;;;;;6.35;4.22;;;;;;;;;;5064249;28;20029;-82
2023/06/18 11:08:33;;;;;;;7.13;4.10;;;31.00;55.90;;;;;;5073166;28;20032;-85
2023/06/18 11:11:07;;;;;;;5.88;4.22;;;31.00;56.10;;;;;;5069213;28;20017;-84
2023/06/18 11:13:37;;;;;;;5.88;4.40;;;31.00;56.10;;;;;;5070925;28;20088;-82
2023/06/18 11:16:06;;;;;;;8.15;4.70;;;;;;;;;;5068396;28;20049;-83
2023/06/18 11:18:33;;;;;;;6.43;4.05;;;;;;;;;;5053583;28;20029;-81
2023/06/18 11:20:59;;;;;;;6.55;4.30;;;31.10;56.40;;;;;;5059814;28;20056;-83
2023/06/18 11:23:26;;;;;;;7.60;4.20;;;;;;;;;;5054837;28;20501;-82
2023/06/18 11:25:56;;;;;;;6.85;4.43;;;;;;;;;;5075724;28;20096;-83
2023/06/18 11:28:23;;;;;;;;;;;31.30;55.20;;;;;;5069451;28;20033;-83
2023/06/18 11:30:51;;;;;;;6.53;4.22;;;31.00;55.90;;;;;;5074707;28;19908;-83
2023/06/18 11:33:25;;;;;;;5.45;4.20;;;31.10;55.60;;;;;;5054955;28;20390;-83
2023/06/18 11:35:51;;;;;;;8.20;4.80;;;;;;;;;;5073722;28;20032;-80
2023/06/18 11:38:19;;;;;;;5.88;4.18;;;;;;;;;;5075491;28;20032;-82
2023/06/18 11:40:52;;;;;;;6.13;4.40;;;;;;;;;;5070248;28;20043;-81
2023/06/18 11:43:18;;;;;;;5.15;4.45;;;;;;;;;;5071940;28;20025;-83
2023/06/18 11:45:47;;;;;;;5.93;4.22;;;31.40;55.20;;;;;;5053760;28;20027;-83
2023/06/18 11:48:15;;;;;;;5.00;3.78;;;;;;;;;;5073033;28;20089;-83
2023/06/18 11:50:41;;;;;;;5.15;4.18;;;;;;;;;;5068534;28;20032;-82
2023/06/18 11:53:09;;;;;;;5.88;4.22;;;;;;;;;;5075741;28;20120;-83
2023/06/18 11:55:36;;;;;;;6.68;4.25;;;;;;;;;;5070894;28;20065;-83
2023/06/18 11:58:02;;;;;;;5.97;4.30;;;;;;;;;;5059587;28;20454;-81
2023/06/18 12:00:30;;;;;;;7.65;5.15;;;31.70;55.20;;;;;;5080351;28;20029;-81
2023/06/18 12:03:00;;;;;;;6.22;4.50;;;31.50;55.10;;;;;;5087700;28;20013;-83
2023/06/18 12:05:26;;;;;;;5.82;4.32;;;;;;;;;;5063945;28;20029;-83
2023/06/18 12:07:52;;;;;;;8.02;4.78;;;;;;;;;;5083634;28;20052;-81
2023/06/18 12:10:19;;;;;;;7.47;4.43;;;31.30;55.10;;;;;;5067498;28;20021;-80
2023/06/18 12:13:01;;;;;;;5.32;4.22;;;31.10;56.10;;;;;;5068485;28;20020;-81
2023/06/18 12:15:33;;;;;;;6.28;4.82;;;;;;;;;;5085948;28;20080;-82
2023/06/18 12:18:32;;;;;;;6.75;4.32;;;31.10;55.40;;;;;;5062331;28;20029;-82
2023/06/18 12:20:59;;;;;;;7.43;4.75;;;;;;;;;;5068382;28;20033;-83
2023/06/18 12:23:26;;;;;;;6.35;4.35;;;;;;;;;;5066126;28;20024;-81
2023/06/18 12:25:53;;;;;;;5.60;4.43;;;;;;;;;;5064196;28;20037;-82
2023/06/18 12:28:23;;;;;;;7.75;4.15;;;30.90;55.60;;;;;;5062432;28;20104;-85
2023/06/18 12:30:52;;;;;;;6.15;4.30;;;;;;;;;;5052081;28;20424;-83
2023/06/18 12:33:18;;;;;;;8.20;4.55;;;;;;;;;;5063747;28;20043;-84
2023/06/18 12:35:58;;;;;;;7.03;4.45;;;;;;;;;;5067335;28;20051;-82
2023/06/18 12:38:25;;;;;;;6.80;4.65;;;;;;;;;;5051261;28;20017;-83
2023/06/18 12:41:01;;;;;;;7.20;4.28;;;;;;;;;;5052514;28;20062;-80
2023/06/18 12:43:27;;;;;;;6.63;4.20;;;;;;;;;;5070372;28;20024;-84
2023/06/18 12:45:53;;;;;;;5.40;4.40;;;;;;;;;;5071175;28;20044;-83
2023/06/18 12:48:28;;;;;;;4.90;4.13;;;;;;;;;;5072856;28;20029;-83
2023/06/18 12:50:55;;;;;;;7.82;4.55;;;;;;;;;;5069680;28;20013;-85
2023/06/18 12:53:28;;;;;;;7.13;4.35;;;30.90;55.10;;;;;;5072478;28;20498;-81
2023/06/18 12:55:57;;;;;;;4.55;4.03;;;31.10;55.00;;;;;;5050301;28;20032;-83
2023/06/18 12:58:25;;;;;;;5.43;4.47;;;31.30;54.90;;;;;;5055947;28;20025;-82
2023/06/18 13:00:54;;;;;;;7.57;4.53;;;;;;;;;;5075008;28;20032;-82
2023/06/18 13:03:30;;;;;;;5.95;4.70;;;;;;;;;;5076408;28;20094;-85
2023/06/18 13:05:57;;;;;;;7.80;4.53;;;;;;;;;;5079184;28;20028;-85
2023/06/18 13:08:31;;;;;;;7.80;4.53;;;;;;;;;;5057134;28;20059;-85
2023/06/18 13:10:57;;;;;;;9.43;4.68;;;;;;;;;;5061956;28;20035;-84
2023/06/18 13:13:25;;;;;;;6.85;4.80;;;;;;;;;;5071394;28;20033;-83
2023/06/18 13:15:52;;;;;;;7.05;4.60;;;;;;;;;;5073875;28;20123;-84
2023/06/18 13:18:18;;;;;;;5.47;4.50;;;;;;;;;;5035381;28;20115;-83
2023/06/18 13:20:48;;;;;;;5.72;4.53;;;;;;;;;;5054729;28;20028;-84
2023/06/18 13:23:14;;;;;;;5.47;4.25;;;;;;;;;;5052902;28;20028;-84
2023/06/18 13:25:43;;;;;;;6.60;4.90;;;;;;;;;;5074953;28;20028;-84
2023/06/18 13:28:09;;;;;;;5.90;4.80;;;;;;;;;;5055140;28;20032;-83
2023/06/18 13:30:36;;;;;;;6.38;4.13;;;;;;;;;;5054939;28;20024;-81
2023/06/18 13:33:02;;;;;;;7.15;4.30;;;;;;;;;;5062410;28;20052;-83
2023/06/18 13:35:30;;;;;;;6.90;4.78;;;;;;;;;;5070733;28;20032;-83
2023/06/18 13:37:56;;;;;;;6.72;4.70;;;;;;;;;;5065835;28;20064;-83
2023/06/18 13:40:23;;;;;;;7.68;4.93;;;;;;;;;;5048236;28;20111;-84
2023/06/18 13:42:50;;;;;;;4.68;4.10;;;;;;;;;;5068147;28;20025;-84
2023/06/18 13:45:16;;;;;;;4.88;4.03;;;;;;;;;;5049834;28;20028;-85
2023/06/18 13:47:42;;;;;;;6.32;4.50;;;;;;;;;;5056018;28;20028;-85
2023/06/18 13:50:09;;;;;;;7.38;3.90;;;;;;;;;;5075863;28;20039;-83
2023/06/18 13:52:35;;;;;;;11.60;5.53;;;;;;;;;;5072177;28;20029;-83
2023/06/18 13:55:02;;;;;;;6.07;4.25;;;;;;;;;;5058221;28;20111;-83
2023/06/18 13:57:31;;;;;;;9.75;4.20;;;;;;;;;;5054297;28;20028;-84
2023/06/18 13:59:57;;;;;;;6.65;4.20;;;;;;;;;;5069536;28;20127;-83
2023/06/18 14:02:23;;;;;;;5.75;4.20;;;;;;;;;;5038193;28;20028;-82
2023/06/18 14:04:49;;;;;;;6.78;4.30;;;30.00;56.70;;;;;;5069905;28;20035;-83
2023/06/18 14:07:15;;;;;;;6.10;4.30;;;;;;;;;;5072595;28;20067;-83
2023/06/18 14:09:41;;;;;;;8.73;6.45;;;;;;;;;;5053891;28;20025;-83
2023/06/18 14:12:07;;;;;;;10.95;4.78;;;;;;;;;;5054508;28;20028;-83
2023/06/18 14:14:33;;;;;;;6.25;4.35;;;;;;;;;;5051021;28;20466;-82
2023/06/18 14:17:00;;;;;;;5.70;4.13;;;;;;;;;;5076793;28;20071;-84
2023/06/18 14:19:26;;;;;;;6.43;4.20;;;;;;;;;;5076120;28;20031;-85
2023/06/18 14:21:54;;;;;;;5.45;4.40;;;;;;;;;;5074643;28;20032;-84
2023/06/18 14:24:26;;;;;;;5.18;4.25;;;;;;;;;;5063056;28;20028;-83
2023/06/18 14:26:52;;;;;;;5.28;4.15;;;;;;;;;;5086754;28;20008;-83
2023/06/18 14:29:26;;;;;;;8.25;6.85;;;;;;;;;;5091306;28;20049;-83
2023/06/18 14:31:52;;;;;;;5.60;4.88;;;;;;;;;;5073087;28;20076;-81
2023/06/18 14:34:19;;;;;;;12.32;5.00;;;;;;;;;;5086271;28;20048;-85
2023/06/18 14:36:47;;;;;;;5.55;4.13;;;;;;;;;;5071563;28;20033;-82
2023/06/18 14:40:07;;;;;;;12.65;11.10;;;;;;;;;;5068164;28;20016;-84
2023/06/18 14:42:26;;;;;;;6.85;5.10;;;;;;;;;;5082838;28;20024;-83
2023/06/18 14:44:52;;;;;;;8.10;5.80;;;;;;;;;;5070406;28;20021;-83
2023/06/18 14:47:20;;;;;;;6.03;4.95;;;;;;;;;;5085046;28;20035;-84
2023/06/18 14:49:53;;;;;;;5.53;4.60;;;;;;;;;;5088294;28;20028;-85
2023/06/18 14:52:50;;;;;;;;;;;;;;;;;;;;;
2023/06/18 14:55:23;;;;;;;5.85;4.22;;;;;;;;;;5069290;28;20024;-82
2023/06/18 14:57:49;;;;;;;5.97;4.45;;;;;;;;;;5070285;28;20039;-83
2023/06/18 15:00:18;;;;;;;7.05;4.50;;;;;;;;;;5049788;28;20025;-83
2023/06/18 15:02:44;;;;;;;7.03;4.90;;;;;;;;;;5036149;28;20028;-83
2023/06/18 15:05:10;;;;;;;5.72;4.60;;;;;;;;;;5072111;28;20030;-83
2023/06/18 15:07:36;;;;;;;10.43;4.82;;;;;;;;;;5077347;28;20494;-84
2023/06/18 15:10:09;;;;;;;6.80;4.82;;;;;;;;;;5071653;28;20029;-82
2023/06/18 15:12:35;;;;;;;8.95;4.53;;;;;;;;;;5068218;28;20707;-84
2023/06/18 15:15:04;;;;;;;8.18;4.53;;;;;;;;;;5076964;28;20017;-86